Palo Pinto, Texas
Current Conditions -  °F | °C
As of 3:53 PM on Sunday 25 Jan 2015 (Local Time) from KMWL Reporting Station
Clear Clear  
Wind Chill: 63°   Ceiling: Unl
Heat Index: 63°   Visibility: 10mi
Dew Point: 23°   Wind: 23mph
Humidity: 22%   Direction: 330°NNW
Pressure: 30.08"   Gusts: 33mph
Location:  32.77°N, 98.3°W
Report Text: KMWL 252153Z AUTO 33020G29KT 10SM CLR 17/M05 A3008 RMK AO2 PK WND 32030/2114 SLP183 T01721050
Loading
Personal Weather Stations






























Interactive Weather Map New forecast layout! Learn more

10-Day Weather Forecast

Advertisements
Track Severe Weather on mobile